Nesbit, MS

7:29 PM CST on February 05, 2016 (GMT -0600)
Skyler Estates | | Change Station
CLOSE
Current Station
Personal Weather Station
Location: Southaven, MS
Elevation: 375 ft
Nearby Weather Stations

Elev 375 ft 34.91 °N, 89.98 °W | Updated 2 minutes ago

Partly Cloudy
Partly Cloudy
40.0 °F
Feels Like 40 °F
N
0.0
Wind Variable Wind from West
Gusts 0.0 mph

Today
High -- | Low -- °F
--% Chance of Precip.
Yesterday
High -- | Low -- °F
Precip. -- in
Pressure 30.39 in
Visibility 10.0 miles
Clouds Mostly Cloudy 25000 ft
Windchill 40 °F
Dew Point 27 °F
Humidity 59%
Rainfall 0.00 in
Snow Depth Not available.
6:55 AM 5:32 PM
Waning Crescent, 8% visible
METAR KMEM 060054Z 17003KT 10SM BKN250 08/M06 A3038 RMK AO2 SLP289 T00781056
Pressure 30.39 in
Visibility 10.0 miles
Clouds Mostly Cloudy 25000 ft
Windchill 40 °F
Dew Point 27 °F
Humidity 59%
Rainfall 0.00 in
Snow Depth Not available.
6:55 AM 5:32 PM
Waning Crescent, 8% visible
METAR KMEM 060054Z 17003KT 10SM BKN250 08/M06 A3038 RMK AO2 SLP289 T00781056

10-Day Weather Forecast

Almanac

Astronomy

Feb. 05, 2016 Rise Set
Actual Time
Civil Twilight
Nautical Twilight
Astronomical Twilight
Moon
Length of Visible Light
Length of Day
Tomorrow will be .
, % of the Moon is Illuminated

Today's Extremes

State Highs State Lows

Community

WunderPhotos

Upload Photos

1,890,904 photos uploaded!

WunderBlog® & News

Nearby

Air Quality

  Air Quality AQ Index Pollutant
Not available.

Snow Depth

Station Depth Elevation

Earthquake Activity

City Distance Mag. Time & Date
Minimum magnitude displayed is 2.5.

Coastal Water Temperatures

Place Temperature

Stations

Nearby Weather Stations

Station Location Temp. Windchill Dew Point Humidity Wind Precip. Elev Updated Type
                   

Watches & Warnings

There are currently no watches in effect.